sensor_id;sensor_type;location;lat;lon;timestamp;pressure;altitude;pressure_sealevel;temperature;humidity
11648;BME280;5880;52.342;9.662;2022-10-30T00:00:49;101109.53;;;21.89;50.30
11648;BME280;5880;52.342;9.662;2022-10-30T00:03:16;101119.25;;;21.92;50.50
11648;BME280;5880;52.342;9.662;2022-10-30T00:05:46;101108.13;;;21.92;50.26
11648;BME280;5880;52.342;9.662;2022-10-30T00:08:15;101110.28;;;21.95;50.31
11648;BME280;5880;52.342;9.662;2022-10-30T00:10:42;101108.94;;;21.92;50.10
11648;BME280;5880;52.342;9.662;2022-10-30T00:13:09;101102.19;;;21.99;49.99
11648;BME280;5880;52.342;9.662;2022-10-30T00:15:35;101101.06;;;22.00;50.13
11648;BME280;5880;52.342;9.662;2022-10-30T00:18:01;101089.38;;;21.98;50.23
11648;BME280;5880;52.342;9.662;2022-10-30T00:20:26;101088.56;;;21.97;50.15
11648;BME280;5880;52.342;9.662;2022-10-30T00:22:52;101090.53;;;21.97;50.09
11648;BME280;5880;52.342;9.662;2022-10-30T00:25:18;101087.75;;;21.97;50.22
11648;BME280;5880;52.342;9.662;2022-10-30T00:27:43;101090.81;;;21.95;50.30
11648;BME280;5880;52.342;9.662;2022-10-30T00:30:10;101091.63;;;21.96;50.13
11648;BME280;5880;52.342;9.662;2022-10-30T00:32:36;101085.25;;;21.95;50.15
11648;BME280;5880;52.342;9.662;2022-10-30T00:35:02;101088.03;;;21.95;50.21
11648;BME280;5880;52.342;9.662;2022-10-30T00:37:28;101089.38;;;21.98;50.20
11648;BME280;5880;52.342;9.662;2022-10-30T00:39:54;101094.66;;;21.99;49.95
11648;BME280;5880;52.342;9.662;2022-10-30T00:42:19;101093.00;;;21.98;49.92
11648;BME280;5880;52.342;9.662;2022-10-30T00:44:50;101078.78;;;22.00;49.82
11648;BME280;5880;52.342;9.662;2022-10-30T00:47:38;101099.09;;;22.00;49.97
11648;BME280;5880;52.342;9.662;2022-10-30T00:52:47;101099.09;;;22.00;49.83
11648;BME280;5880;52.342;9.662;2022-10-30T00:55:33;101096.31;;;22.00;49.77
11648;BME280;5880;52.342;9.662;2022-10-30T00:58:04;101091.06;;;21.99;49.75
11648;BME280;5880;52.342;9.662;2022-10-30T01:00:34;101089.38;;;21.98;49.88
11648;BME280;5880;52.342;9.662;2022-10-30T01:03:02;101093.53;;;22.00;49.77
11648;BME280;5880;52.342;9.662;2022-10-30T01:05:31;101092.97;;;22.03;49.95
11648;BME280;5880;52.342;9.662;2022-10-30T01:07:58;101090.69;;;22.05;49.83
11648;BME280;5880;52.342;9.662;2022-10-30T01:10:24;101083.72;;;22.08;49.62
11648;BME280;5880;52.342;9.662;2022-10-30T01:12:52;101085.59;;;22.12;49.64
11648;BME280;5880;52.342;9.662;2022-10-30T01:15:30;101082.75;;;22.18;49.67
11648;BME280;5880;52.342;9.662;2022-10-30T01:18:38;101084.94;;;22.21;49.65
11648;BME280;5880;52.342;9.662;2022-10-30T01:23:57;101080.13;;;22.26;49.51
11648;BME280;5880;52.342;9.662;2022-10-30T01:26:45;101080.66;;;22.28;49.48
11648;BME280;5880;52.342;9.662;2022-10-30T01:32:07;101089.88;;;22.29;49.29
11648;BME280;5880;52.342;9.662;2022-10-30T01:34:57;101083.97;;;22.30;49.07
11648;BME280;5880;52.342;9.662;2022-10-30T01:37:51;101079.53;;;22.29;49.26
11648;BME280;5880;52.342;9.662;2022-10-30T01:40:19;101076.75;;;22.29;49.22
11648;BME280;5880;52.342;9.662;2022-10-30T01:42:56;101074.19;;;22.33;49.08
11648;BME280;5880;52.342;9.662;2022-10-30T01:54:51;101071.94;;;22.35;49.08
11648;BME280;5880;52.342;9.662;2022-10-30T02:00:27;101082.47;;;22.38;49.09
11648;BME280;5880;52.342;9.662;2022-10-30T02:02:53;101083.84;;;22.41;48.90
11648;BME280;5880;52.342;9.662;2022-10-30T02:05:44;101082.09;;;22.45;48.84
11648;BME280;5880;52.342;9.662;2022-10-30T02:08:10;101081.28;;;22.44;48.88
11648;BME280;5880;52.342;9.662;2022-10-30T02:10:37;101088.50;;;22.45;48.74
11648;BME280;5880;52.342;9.662;2022-10-30T02:13:04;101082.09;;;22.45;48.51
11648;BME280;5880;52.342;9.662;2022-10-30T02:15:30;101088.81;;;22.44;48.49
11648;BME280;5880;52.342;9.662;2022-10-30T02:17:56;101085.78;;;22.40;48.29
11648;BME280;5880;52.342;9.662;2022-10-30T02:20:23;101089.72;;;22.39;48.38
11648;BME280;5880;52.342;9.662;2022-10-30T02:22:49;101095.34;;;22.34;48.43
11648;BME280;5880;52.342;9.662;2022-10-30T02:25:15;101092.03;;;22.32;48.42
11648;BME280;5880;52.342;9.662;2022-10-30T02:27:41;101085.41;;;22.28;48.43
11648;BME280;5880;52.342;9.662;2022-10-30T02:30:08;101089.91;;;22.24;48.37
11648;BME280;5880;52.342;9.662;2022-10-30T02:32:34;101105.25;;;22.21;48.48
11648;BME280;5880;52.342;9.662;2022-10-30T02:34:59;101096.66;;;22.18;48.45
11648;BME280;5880;52.342;9.662;2022-10-30T02:37:25;101093.34;;;22.16;48.56
11648;BME280;5880;52.342;9.662;2022-10-30T02:39:52;101091.47;;;22.11;48.44
11648;BME280;5880;52.342;9.662;2022-10-30T02:42:18;101089.28;;;22.08;48.47
11648;BME280;5880;52.342;9.662;2022-10-30T02:44:43;101091.81;;;22.04;48.39
11648;BME280;5880;52.342;9.662;2022-10-30T02:47:10;101083.53;;;21.99;48.35
11648;BME280;5880;52.342;9.662;2022-10-30T02:49:36;101089.72;;;21.96;48.46
11648;BME280;5880;52.342;9.662;2022-10-30T02:52:02;101095.84;;;21.93;48.47
11648;BME280;5880;52.342;9.662;2022-10-30T02:54:27;101100.34;;;21.89;48.37
11648;BME280;5880;52.342;9.662;2022-10-30T02:56:53;101096.53;;;21.85;48.25
11648;BME280;5880;52.342;9.662;2022-10-30T02:59:19;101085.16;;;21.81;48.33
11648;BME280;5880;52.342;9.662;2022-10-30T03:01:45;101090.78;;;21.76;48.50
11648;BME280;5880;52.342;9.662;2022-10-30T03:04:10;101090.31;;;21.69;48.50
11648;BME280;5880;52.342;9.662;2022-10-30T03:06:36;101094.19;;;21.68;48.44
11648;BME280;5880;52.342;9.662;2022-10-30T03:09:03;101089.22;;;21.65;48.59
11648;BME280;5880;52.342;9.662;2022-10-30T03:11:28;101090.44;;;21.59;48.79
11648;BME280;5880;52.342;9.662;2022-10-30T03:13:54;101086.25;;;21.56;48.75
11648;BME280;5880;52.342;9.662;2022-10-30T03:16:25;101090.19;;;21.55;48.68
11648;BME280;5880;52.342;9.662;2022-10-30T03:18:51;101090.78;;;21.52;48.96
11648;BME280;5880;52.342;9.662;2022-10-30T03:21:21;101093.03;;;21.50;48.94
11648;BME280;5880;52.342;9.662;2022-10-30T03:23:47;101099.19;;;21.47;48.95
11648;BME280;5880;52.342;9.662;2022-10-30T03:26:16;101097.78;;;21.44;48.73
11648;BME280;5880;52.342;9.662;2022-10-30T03:28:42;101096.16;;;21.43;49.04
11648;BME280;5880;52.342;9.662;2022-10-30T03:31:12;101096.16;;;21.43;49.11
11648;BME280;5880;52.342;9.662;2022-10-30T03:33:38;101084.75;;;21.40;49.20
11648;BME280;5880;52.342;9.662;2022-10-30T03:36:07;101084.75;;;21.40;49.02
11648;BME280;5880;52.342;9.662;2022-10-30T03:38:33;101082.31;;;21.33;49.06
11648;BME280;5880;52.342;9.662;2022-10-30T03:40:59;101084.22;;;21.38;49.10
11648;BME280;5880;52.342;9.662;2022-10-30T03:45:54;101083.97;;;21.34;49.22
11648;BME280;5880;52.342;9.662;2022-10-30T03:48:23;101090.31;;;21.40;49.39
11648;BME280;5880;52.342;9.662;2022-10-30T03:50:55;101088.09;;;21.42;49.38
11648;BME280;5880;52.342;9.662;2022-10-30T03:53:22;101088.09;;;21.42;49.19
11648;BME280;5880;52.342;9.662;2022-10-30T03:56:03;101091.41;;;21.44;49.21
11648;BME280;5880;52.342;9.662;2022-10-30T03:58:29;101091.41;;;21.44;49.10
11648;BME280;5880;52.342;9.662;2022-10-30T04:01:03;101092.22;;;21.44;49.18
11648;BME280;5880;52.342;9.662;2022-10-30T04:03:29;101093.66;;;21.42;49.15
11648;BME280;5880;52.342;9.662;2022-10-30T04:05:55;101094.78;;;21.41;49.20
11648;BME280;5880;52.342;9.662;2022-10-30T04:08:21;101097.00;;;21.39;49.11
11648;BME280;5880;52.342;9.662;2022-10-30T04:10:47;101099.22;;;21.37;48.96
11648;BME280;5880;52.342;9.662;2022-10-30T04:13:15;101101.47;;;21.35;49.05
11648;BME280;5880;52.342;9.662;2022-10-30T04:15:41;101108.75;;;21.31;49.02
11648;BME280;5880;52.342;9.662;2022-10-30T04:18:11;101105.13;;;21.30;49.09
11648;BME280;5880;52.342;9.662;2022-10-30T04:20:37;101100.44;;;21.25;48.96
11648;BME280;5880;52.342;9.662;2022-10-30T04:23:05;101098.81;;;21.24;48.88
11648;BME280;5880;52.342;9.662;2022-10-30T04:25:34;101100.22;;;21.22;49.19
11648;BME280;5880;52.342;9.662;2022-10-30T04:28:00;101103.56;;;21.19;49.07
11648;BME280;5880;52.342;9.662;2022-10-30T04:30:26;101091.94;;;21.17;49.10
11648;BME280;5880;52.342;9.662;2022-10-30T04:32:54;101093.03;;;21.16;49.02
11648;BME280;5880;52.342;9.662;2022-10-30T04:35:24;101099.19;;;21.13;49.00
11648;BME280;5880;52.342;9.662;2022-10-30T04:37:59;101088.34;;;21.11;49.19
11648;BME280;5880;52.342;9.662;2022-10-30T04:40:29;101096.75;;;21.06;48.88
11648;BME280;5880;52.342;9.662;2022-10-30T04:42:56;101097.63;;;21.01;49.02
11648;BME280;5880;52.342;9.662;2022-10-30T04:45:22;101093.47;;;20.99;49.29
11648;BME280;5880;52.342;9.662;2022-10-30T04:47:48;101094.06;;;20.96;48.96
11648;BME280;5880;52.342;9.662;2022-10-30T04:50:14;101099.09;;;20.94;49.15
11648;BME280;5880;52.342;9.662;2022-10-30T04:52:41;101100.50;;;20.91;48.97
11648;BME280;5880;52.342;9.662;2022-10-30T04:55:08;101092.19;;;20.86;49.29
11648;BME280;5880;52.342;9.662;2022-10-30T04:57:34;101089.41;;;20.86;49.24
11648;BME280;5880;52.342;9.662;2022-10-30T05:00:03;101086.09;;;20.84;48.99
11648;BME280;5880;52.342;9.662;2022-10-30T05:02:29;101084.75;;;20.81;49.21
11648;BME280;5880;52.342;9.662;2022-10-30T05:04:55;101081.44;;;20.74;49.18
11648;BME280;5880;52.342;9.662;2022-10-30T05:07:20;101080.63;;;20.74;49.15
11648;BME280;5880;52.342;9.662;2022-10-30T05:09:46;101079.78;;;20.73;49.15
11648;BME280;5880;52.342;9.662;2022-10-30T05:12:12;101083.97;;;20.71;49.22
11648;BME280;5880;52.342;9.662;2022-10-30T05:14:37;101089.81;;;20.69;49.42
11648;BME280;5880;52.342;9.662;2022-10-30T05:17:03;101088.44;;;20.66;49.24
11648;BME280;5880;52.342;9.662;2022-10-30T05:19:29;101080.69;;;20.63;49.06
11648;BME280;5880;52.342;9.662;2022-10-30T05:21:54;101086.25;;;20.63;49.04
11648;BME280;5880;52.342;9.662;2022-10-30T05:24:20;101099.59;;;20.61;49.45
11648;BME280;5880;52.342;9.662;2022-10-30T05:26:46;101086.81;;;20.55;49.34
11648;BME280;5880;52.342;9.662;2022-10-30T05:29:12;101094.09;;;20.56;49.40
11648;BME280;5880;52.342;9.662;2022-10-30T05:31:39;101088.78;;;20.55;49.36
11648;BME280;5880;52.342;9.662;2022-10-30T05:34:04;101089.38;;;20.52;49.29
11648;BME280;5880;52.342;9.662;2022-10-30T05:36:30;101077.44;;;20.46;49.18
11648;BME280;5880;52.342;9.662;2022-10-30T05:38:56;101098.28;;;20.49;49.24
11648;BME280;5880;52.342;9.662;2022-10-30T05:41:21;101095.78;;;20.47;49.49
11648;BME280;5880;52.342;9.662;2022-10-30T05:43:47;101095.50;;;20.43;49.52
11648;BME280;5880;52.342;9.662;2022-10-30T05:46:13;101097.47;;;20.43;49.53
11648;BME280;5880;52.342;9.662;2022-10-30T05:48:38;101108.03;;;20.41;49.27
11648;BME280;5880;52.342;9.662;2022-10-30T05:51:04;101104.69;;;20.39;49.33
11648;BME280;5880;52.342;9.662;2022-10-30T05:53:31;101107.78;;;20.37;49.68
11648;BME280;5880;52.342;9.662;2022-10-30T05:55:58;101112.78;;;20.35;49.52
11648;BME280;5880;52.342;9.662;2022-10-30T05:58:24;101098.91;;;20.35;49.71
11648;BME280;5880;52.342;9.662;2022-10-30T06:00:50;101101.97;;;20.34;49.59
11648;BME280;5880;52.342;9.662;2022-10-30T06:03:16;101104.19;;;20.32;49.74
11648;BME280;5880;52.342;9.662;2022-10-30T06:05:44;101106.97;;;20.32;49.91
11648;BME280;5880;52.342;9.662;2022-10-30T06:08:10;101102.53;;;20.31;50.12
11648;BME280;5880;52.342;9.662;2022-10-30T06:10:36;101102.81;;;20.29;49.88
11648;BME280;5880;52.342;9.662;2022-10-30T06:13:05;101095.31;;;20.30;49.94
11648;BME280;5880;52.342;9.662;2022-10-30T06:15:32;101111.13;;;20.29;49.99
11648;BME280;5880;52.342;9.662;2022-10-30T06:17:58;101111.44;;;20.28;50.01
11648;BME280;5880;52.342;9.662;2022-10-30T06:20:28;101115.03;;;20.28;49.95
11648;BME280;5880;52.342;9.662;2022-10-30T06:23:04;101115.59;;;20.30;50.08
11648;BME280;5880;52.342;9.662;2022-10-30T06:25:33;101121.41;;;20.29;50.26
11648;BME280;5880;52.342;9.662;2022-10-30T06:28:00;101121.41;;;20.29;50.07
11648;BME280;5880;52.342;9.662;2022-10-30T06:30:26;101131.38;;;20.30;49.99
11648;BME280;5880;52.342;9.662;2022-10-30T06:33:04;101121.97;;;20.31;50.11
11648;BME280;5880;52.342;9.662;2022-10-30T06:35:30;101141.97;;;20.28;50.17
11648;BME280;5880;52.342;9.662;2022-10-30T06:37:57;101142.25;;;20.26;49.85
11648;BME280;5880;52.342;9.662;2022-10-30T06:40:25;101135.03;;;20.25;49.89
11648;BME280;5880;52.342;9.662;2022-10-30T06:42:52;101139.19;;;20.22;49.81
11648;BME280;5880;52.342;9.662;2022-10-30T06:45:20;101138.66;;;20.20;49.94
11648;BME280;5880;52.342;9.662;2022-10-30T06:47:47;101141.72;;;20.19;50.15
11648;BME280;5880;52.342;9.662;2022-10-30T06:50:16;101147.56;;;20.17;50.17
11648;BME280;5880;52.342;9.662;2022-10-30T06:52:42;101145.34;;;20.14;50.00
11648;BME280;5880;52.342;9.662;2022-10-30T06:55:10;101148.13;;;20.14;49.92
11648;BME280;5880;52.342;9.662;2022-10-30T06:57:36;101153.69;;;20.14;50.28
11648;BME280;5880;52.342;9.662;2022-10-30T07:00:04;101151.19;;;20.13;50.23
11648;BME280;5880;52.342;9.662;2022-10-30T07:02:31;101145.66;;;20.08;50.28
11648;BME280;5880;52.342;9.662;2022-10-30T07:04:57;101147.84;;;20.11;50.06
11648;BME280;5880;52.342;9.662;2022-10-30T07:07:22;101146.22;;;20.10;50.24
11648;BME280;5880;52.342;9.662;2022-10-30T07:09:48;101158.94;;;20.11;50.39
11648;BME280;5880;52.342;9.662;2022-10-30T07:12:14;101152.31;;;20.12;50.54
11648;BME280;5880;52.342;9.662;2022-10-30T07:14:40;101155.09;;;20.12;50.42
11648;BME280;5880;52.342;9.662;2022-10-30T07:17:06;101153.41;;;20.11;50.48
11648;BME280;5880;52.342;9.662;2022-10-30T07:19:31;101158.41;;;20.14;50.58
11648;BME280;5880;52.342;9.662;2022-10-30T07:21:57;101160.88;;;20.15;50.67
11648;BME280;5880;52.342;9.662;2022-10-30T07:24:23;101157.00;;;20.16;50.93
11648;BME280;5880;52.342;9.662;2022-10-30T07:26:48;101159.47;;;20.18;50.84
11648;BME280;5880;52.342;9.662;2022-10-30T07:29:14;101160.03;;;20.20;51.20
11648;BME280;5880;52.342;9.662;2022-10-30T07:31:39;101162.53;;;20.21;51.03
11648;BME280;5880;52.342;9.662;2022-10-30T07:34:05;101163.91;;;20.24;51.19
11648;BME280;5880;52.342;9.662;2022-10-30T07:36:31;101165.00;;;20.28;51.22
11648;BME280;5880;52.342;9.662;2022-10-30T07:38:56;101164.44;;;20.31;51.62
11648;BME280;5880;52.342;9.662;2022-10-30T07:41:22;101165.53;;;20.35;51.34
11648;BME280;5880;52.342;9.662;2022-10-30T07:43:48;101166.91;;;20.38;51.39
11648;BME280;5880;52.342;9.662;2022-10-30T07:46:13;101168.53;;;20.44;51.48
11648;BME280;5880;52.342;9.662;2022-10-30T07:48:40;101157.94;;;20.46;51.61
11648;BME280;5880;52.342;9.662;2022-10-30T07:51:06;101168.47;;;20.54;51.88
11648;BME280;5880;52.342;9.662;2022-10-30T07:53:31;101176.81;;;20.59;51.65
11648;BME280;5880;52.342;9.662;2022-10-30T07:55:57;101169.56;;;20.63;51.74
11648;BME280;5880;52.342;9.662;2022-10-30T07:58:23;101168.44;;;20.64;51.71
11648;BME280;5880;52.342;9.662;2022-10-30T08:00:49;101174.22;;;20.73;51.74
11648;BME280;5880;52.342;9.662;2022-10-30T08:03:15;101176.97;;;20.78;51.95
11648;BME280;5880;52.342;9.662;2022-10-30T08:05:41;101176.94;;;20.83;52.16
11648;BME280;5880;52.342;9.662;2022-10-30T08:08:08;101170.22;;;20.90;51.93
11648;BME280;5880;52.342;9.662;2022-10-30T08:10:35;101173.78;;;20.95;51.98
11648;BME280;5880;52.342;9.662;2022-10-30T08:13:01;101169.31;;;20.99;52.11
11648;BME280;5880;52.342;9.662;2022-10-30T08:15:27;101155.44;;;20.99;51.90
11648;BME280;5880;52.342;9.662;2022-10-30T08:17:53;101168.94;;;21.11;51.87
11648;BME280;5880;52.342;9.662;2022-10-30T08:20:22;101167.81;;;21.17;52.07
11648;BME280;5880;52.342;9.662;2022-10-30T08:22:56;101167.75;;;21.22;51.80
11648;BME280;5880;52.342;9.662;2022-10-30T08:25:25;101172.72;;;21.25;51.86
11648;BME280;5880;52.342;9.662;2022-10-30T08:28:04;101173.53;;;21.31;51.78
11648;BME280;5880;52.342;9.662;2022-10-30T08:30:34;101180.44;;;21.34;52.14
11648;BME280;5880;52.342;9.662;2022-10-30T08:35:31;101185.94;;;21.44;52.01
11648;BME280;5880;52.342;9.662;2022-10-30T08:37:59;101180.06;;;21.50;51.75
11648;BME280;5880;52.342;9.662;2022-10-30T08:40:27;101188.66;;;21.54;51.84
11648;BME280;5880;52.342;9.662;2022-10-30T08:42:56;101180.53;;;21.58;51.76
11648;BME280;5880;52.342;9.662;2022-10-30T08:45:23;101197.09;;;21.68;51.84
11648;BME280;5880;52.342;9.662;2022-10-30T08:48:03;101184.22;;;21.77;51.78
11648;BME280;5880;52.342;9.662;2022-10-30T08:50:32;101195.59;;;21.81;51.74
11648;BME280;5880;52.342;9.662;2022-10-30T08:53:04;101188.88;;;21.87;51.84
11648;BME280;5880;52.342;9.662;2022-10-30T08:55:31;101194.06;;;21.93;51.84
11648;BME280;5880;52.342;9.662;2022-10-30T08:57:57;101183.19;;;21.97;51.67
11648;BME280;5880;52.342;9.662;2022-10-30T09:00:24;101192.28;;;22.03;51.76
11648;BME280;5880;52.342;9.662;2022-10-30T09:02:50;101196.16;;;22.07;51.47
11648;BME280;5880;52.342;9.662;2022-10-30T09:05:16;101185.56;;;22.09;51.35
11648;BME280;5880;52.342;9.662;2022-10-30T09:07:42;101201.59;;;22.17;51.34
11648;BME280;5880;52.342;9.662;2022-10-30T09:10:08;101194.63;;;22.20;51.41
11648;BME280;5880;52.342;9.662;2022-10-30T09:12:34;101197.38;;;22.25;51.09
11648;BME280;5880;52.342;9.662;2022-10-30T09:14:59;101190.66;;;22.26;51.18
11648;BME280;5880;52.342;9.662;2022-10-30T09:17:25;101200.28;;;22.39;51.05
11648;BME280;5880;52.342;9.662;2022-10-30T09:19:51;101200.59;;;22.56;51.12
11648;BME280;5880;52.342;9.662;2022-10-30T09:22:17;101203.38;;;22.75;50.90
11648;BME280;5880;52.342;9.662;2022-10-30T09:24:43;101189.31;;;22.85;50.69
11648;BME280;5880;52.342;9.662;2022-10-30T09:27:09;101197.53;;;22.95;50.42
11648;BME280;5880;52.342;9.662;2022-10-30T09:29:34;101193.56;;;23.02;50.54
11648;BME280;5880;52.342;9.662;2022-10-30T09:32:02;101203.50;;;23.08;50.36
11648;BME280;5880;52.342;9.662;2022-10-30T09:34:29;101204.84;;;23.10;50.47
11648;BME280;5880;52.342;9.662;2022-10-30T09:36:55;101210.66;;;23.14;50.37
11648;BME280;5880;52.342;9.662;2022-10-30T09:39:22;101191.34;;;23.17;50.42
11648;BME280;5880;52.342;9.662;2022-10-30T09:53:58;101202.47;;;23.36;50.30
11648;BME280;5880;52.342;9.662;2022-10-30T09:56:33;101186.34;;;23.33;50.32
11648;BME280;5880;52.342;9.662;2022-10-30T10:04:53;101197.16;;;23.54;49.97
11648;BME280;5880;52.342;9.662;2022-10-30T10:07:27;101189.31;;;23.56;50.05
11648;BME280;5880;52.342;9.662;2022-10-30T10:10:04;101199.56;;;23.60;49.62
11648;BME280;5880;52.342;9.662;2022-10-30T10:12:38;101196.97;;;23.64;49.74
11648;BME280;5880;52.342;9.662;2022-10-30T10:15:19;101201.63;;;23.69;49.62
11648;BME280;5880;52.342;9.662;2022-10-30T10:17:48;101204.94;;;23.71;49.60
11648;BME280;5880;52.342;9.662;2022-10-30T10:20:36;101200.97;;;23.77;49.64
11648;BME280;5880;52.342;9.662;2022-10-30T10:23:20;101189.78;;;23.77;49.37
11648;BME280;5880;52.342;9.662;2022-10-30T10:25:53;101184.75;;;23.79;49.70
11648;BME280;5880;52.342;9.662;2022-10-30T10:43:41;101194.38;;;24.00;49.41
11648;BME280;5880;52.342;9.662;2022-10-30T10:52:22;101174.94;;;24.09;48.79
11648;BME280;5880;52.342;9.662;2022-10-30T10:54:53;101171.19;;;24.14;48.80
11648;BME280;5880;52.342;9.662;2022-10-30T10:57:34;101167.97;;;24.20;48.76
11648;BME280;5880;52.342;9.662;2022-10-30T11:00:09;101153.72;;;24.22;48.42
11648;BME280;5880;52.342;9.662;2022-10-30T11:03:08;101163.44;;;24.25;48.91
11648;BME280;5880;52.342;9.662;2022-10-30T11:05:55;101166.44;;;24.28;48.52
11648;BME280;5880;52.342;9.662;2022-10-30T11:08:31;101167.78;;;24.31;48.61
11648;BME280;5880;52.342;9.662;2022-10-30T11:11:05;101152.03;;;24.35;48.41
11648;BME280;5880;52.342;9.662;2022-10-30T11:13:39;101155.03;;;24.38;48.56
11648;BME280;5880;52.342;9.662;2022-10-30T11:16:32;101153.06;;;24.39;48.23
11648;BME280;5880;52.342;9.662;2022-10-30T11:19:04;101155.88;;;24.39;48.41
11648;BME280;5880;52.342;9.662;2022-10-30T11:21:40;101149.66;;;24.42;48.06
11648;BME280;5880;52.342;9.662;2022-10-30T11:24:32;101157.09;;;24.47;48.42
11648;BME280;5880;52.342;9.662;2022-10-30T11:29:59;101153.06;;;24.53;48.32
11648;BME280;5880;52.342;9.662;2022-10-30T11:32:28;101147.19;;;24.54;48.48
11648;BME280;5880;52.342;9.662;2022-10-30T11:35:11;101148.69;;;24.60;48.09
11648;BME280;5880;52.342;9.662;2022-10-30T11:37:40;101151.72;;;24.64;48.05
11648;BME280;5880;52.342;9.662;2022-10-30T11:43:14;101136.16;;;24.72;47.63
11648;BME280;5880;52.342;9.662;2022-10-30T11:45:40;101132.75;;;24.75;47.64
11648;BME280;5880;52.342;9.662;2022-10-30T11:48:17;101137.69;;;24.78;47.81
11648;BME280;5880;52.342;9.662;2022-10-30T11:50:48;101129.31;;;24.78;47.54
11648;BME280;5880;52.342;9.662;2022-10-30T11:53:22;101134.47;;;24.84;47.77
11648;BME280;5880;52.342;9.662;2022-10-30T11:55:49;101128.22;;;24.88;47.31
11648;BME280;5880;52.342;9.662;2022-10-30T11:58:30;101118.06;;;24.92;47.40
11648;BME280;5880;52.342;9.662;2022-10-30T12:01:10;101128.63;;;24.95;47.41
11648;BME280;5880;52.342;9.662;2022-10-30T12:03:41;101127.97;;;24.98;47.55
11648;BME280;5880;52.342;9.662;2022-10-30T12:09:09;101117.69;;;25.07;47.04
11648;BME280;5880;52.342;9.662;2022-10-30T12:11:37;101118.00;;;25.05;46.88
11648;BME280;5880;52.342;9.662;2022-10-30T12:14:04;101110.31;;;25.11;46.88
11648;BME280;5880;52.342;9.662;2022-10-30T12:16:32;101111.34;;;25.15;46.99
11648;BME280;5880;52.342;9.662;2022-10-30T12:19:05;101107.59;;;25.20;46.68
11648;BME280;5880;52.342;9.662;2022-10-30T12:21:41;101099.38;;;25.23;46.78
11648;BME280;5880;52.342;9.662;2022-10-30T12:26:53;101092.84;;;25.28;46.86
11648;BME280;5880;52.342;9.662;2022-10-30T12:29:25;101100.59;;;25.31;46.72
11648;BME280;5880;52.342;9.662;2022-10-30T12:32:05;101086.78;;;25.35;46.37
11648;BME280;5880;52.342;9.662;2022-10-30T12:34:58;101096.50;;;25.37;46.63
11648;BME280;5880;52.342;9.662;2022-10-30T12:37:41;101088.94;;;25.38;46.60
11648;BME280;5880;52.342;9.662;2022-10-30T12:40:20;101078.25;;;25.40;46.08
11648;BME280;5880;52.342;9.662;2022-10-30T12:43:27;101094.72;;;25.41;46.50
11648;BME280;5880;52.342;9.662;2022-10-30T12:48:54;101087.34;;;25.45;46.23
11648;BME280;5880;52.342;9.662;2022-10-30T12:52:14;101082.56;;;25.46;46.42
11648;BME280;5880;52.342;9.662;2022-10-30T12:55:02;101081.41;;;25.47;46.27
11648;BME280;5880;52.342;9.662;2022-10-30T12:57:43;101075.50;;;25.48;46.42
11648;BME280;5880;52.342;9.662;2022-10-30T13:00:14;101086.38;;;25.50;46.39
11648;BME280;5880;52.342;9.662;2022-10-30T13:03:04;101082.94;;;25.53;46.03
11648;BME280;5880;52.342;9.662;2022-10-30T13:05:53;101085.72;;;25.53;46.37
11648;BME280;5880;52.342;9.662;2022-10-30T13:08:43;101081.75;;;25.54;46.39
11648;BME280;5880;52.342;9.662;2022-10-30T13:11:30;101077.00;;;25.55;46.02
11648;BME280;5880;52.342;9.662;2022-10-30T13:14:02;101079.81;;;25.55;45.88
11648;BME280;5880;52.342;9.662;2022-10-30T13:16:31;101079.16;;;25.58;45.63
11648;BME280;5880;52.342;9.662;2022-10-30T13:19:00;101082.13;;;25.61;45.77
11648;BME280;5880;52.342;9.662;2022-10-30T13:21:58;101078.19;;;25.62;45.70
11648;BME280;5880;52.342;9.662;2022-10-30T13:27:44;101066.50;;;25.60;45.65
11648;BME280;5880;52.342;9.662;2022-10-30T13:30:20;101079.66;;;25.60;45.55
11648;BME280;5880;52.342;9.662;2022-10-30T13:33:19;101074.38;;;25.58;46.01
11648;BME280;5880;52.342;9.662;2022-10-30T13:36:15;101077.19;;;25.58;45.69
11648;BME280;5880;52.342;9.662;2022-10-30T13:39:41;101076.38;;;25.58;45.64
11648;BME280;5880;52.342;9.662;2022-10-30T13:41:58;101065.16;;;25.58;45.55
11648;BME280;5880;52.342;9.662;2022-10-30T13:51:08;101069.75;;;25.54;45.65
11648;BME280;5880;52.342;9.662;2022-10-30T13:53:42;101045.72;;;25.53;45.61
11648;BME280;5880;52.342;9.662;2022-10-30T13:56:15;101057.59;;;25.58;45.52
11648;BME280;5880;52.342;9.662;2022-10-30T13:59:36;101075.69;;;25.61;45.53
11648;BME280;5880;52.342;9.662;2022-10-30T14:10:51;101068.97;;;25.62;45.58
11648;BME280;5880;52.342;9.662;2022-10-30T14:13:55;101065.00;;;25.63;45.48
11648;BME280;5880;52.342;9.662;2022-10-30T14:16:43;101065.31;;;25.61;45.80
11648;BME280;5880;52.342;9.662;2022-10-30T14:19:15;101056.78;;;25.58;45.46
11648;BME280;5880;52.342;9.662;2022-10-30T14:21:54;101065.31;;;25.61;45.47
11648;BME280;5880;52.342;9.662;2022-10-30T14:24:33;101064.84;;;25.59;45.73
11648;BME280;5880;52.342;9.662;2022-10-30T14:39:49;101049.00;;;25.46;45.34
11648;BME280;5880;52.342;9.662;2022-10-30T14:45:24;101059.16;;;25.42;45.36
11648;BME280;5880;52.342;9.662;2022-10-30T14:48:14;101048.94;;;25.37;45.68
11648;BME280;5880;52.342;9.662;2022-10-30T14:50:56;101039.53;;;25.33;45.42
11648;BME280;5880;52.342;9.662;2022-10-30T14:56:33;101042.31;;;25.24;45.62
11648;BME280;5880;52.342;9.662;2022-10-30T14:59:32;101047.72;;;25.21;45.59
11648;BME280;5880;52.342;9.662;2022-10-30T15:02:22;101051.97;;;25.18;45.71
11648;BME280;5880;52.342;9.662;2022-10-30T15:05:39;101053.22;;;25.12;45.39
11648;BME280;5880;52.342;9.662;2022-10-30T15:14:31;101052.47;;;24.98;45.87
11648;BME280;5880;52.342;9.662;2022-10-30T15:16:59;101058.22;;;24.93;45.94
11648;BME280;5880;52.342;9.662;2022-10-30T15:19:26;101057.91;;;24.94;45.97
11648;BME280;5880;52.342;9.662;2022-10-30T15:21:54;101056.75;;;24.95;46.06
11648;BME280;5880;52.342;9.662;2022-10-30T15:24:25;101058.22;;;24.93;45.92